sensor_id;sensor_type;location;lat;lon;timestamp;temperature;humidity
10300;DHT22;5195;48.562;9.192;2022-08-03T00:01:16;23.90;48.10
10300;DHT22;5195;48.562;9.192;2022-08-03T00:03:41;23.60;48.40
10300;DHT22;5195;48.562;9.192;2022-08-03T00:06:08;24.00;48.10
10300;DHT22;5195;48.562;9.192;2022-08-03T00:08:33;24.00;48.10
10300;DHT22;5195;48.562;9.192;2022-08-03T00:10:59;24.20;47.70
10300;DHT22;5195;48.562;9.192;2022-08-03T00:13:24;24.00;47.80
10300;DHT22;5195;48.562;9.192;2022-08-03T00:15:50;23.60;48.20
10300;DHT22;5195;48.562;9.192;2022-08-03T00:18:15;23.30;48.70
10300;DHT22;5195;48.562;9.192;2022-08-03T00:20:41;23.40;48.80
10300;DHT22;5195;48.562;9.192;2022-08-03T00:23:07;23.70;48.40
10300;DHT22;5195;48.562;9.192;2022-08-03T00:25:36;23.90;48.00
10300;DHT22;5195;48.562;9.192;2022-08-03T00:28:02;24.10;47.90
10300;DHT22;5195;48.562;9.192;2022-08-03T00:30:27;24.20;47.30
10300;DHT22;5195;48.562;9.192;2022-08-03T00:32:52;24.20;48.00
10300;DHT22;5195;48.562;9.192;2022-08-03T00:35:18;24.00;48.00
10300;DHT22;5195;48.562;9.192;2022-08-03T00:37:43;24.00;47.70
10300;DHT22;5195;48.562;9.192;2022-08-03T00:40:10;23.80;48.00
10300;DHT22;5195;48.562;9.192;2022-08-03T00:42:44;23.80;48.10
10300;DHT22;5195;48.562;9.192;2022-08-03T00:45:00;23.60;48.20
10300;DHT22;5195;48.562;9.192;2022-08-03T00:47:26;23.30;48.60
10300;DHT22;5195;48.562;9.192;2022-08-03T00:49:52;23.40;48.80
10300;DHT22;5195;48.562;9.192;2022-08-03T00:52:17;23.70;48.50
10300;DHT22;5195;48.562;9.192;2022-08-03T00:54:43;23.80;48.20
10300;DHT22;5195;48.562;9.192;2022-08-03T00:57:08;23.90;48.00
10300;DHT22;5195;48.562;9.192;2022-08-03T00:59:35;23.30;48.60
10300;DHT22;5195;48.562;9.192;2022-08-03T01:02:00;23.20;48.70
10300;DHT22;5195;48.562;9.192;2022-08-03T01:04:26;22.90;49.10
10300;DHT22;5195;48.562;9.192;2022-08-03T01:06:56;22.80;49.60
10300;DHT22;5195;48.562;9.192;2022-08-03T01:09:32;22.60;49.80
10300;DHT22;5195;48.562;9.192;2022-08-03T01:11:59;22.50;50.10
10300;DHT22;5195;48.562;9.192;2022-08-03T01:14:26;22.40;50.40
10300;DHT22;5195;48.562;9.192;2022-08-03T01:20:07;22.70;50.20
10300;DHT22;5195;48.562;9.192;2022-08-03T01:31:03;22.40;50.50
10300;DHT22;5195;48.562;9.192;2022-08-03T01:33:28;22.70;50.70
10300;DHT22;5195;48.562;9.192;2022-08-03T01:35:59;22.70;50.60
10300;DHT22;5195;48.562;9.192;2022-08-03T01:38:25;22.60;50.90
10300;DHT22;5195;48.562;9.192;2022-08-03T01:40:49;22.80;50.70
10300;DHT22;5195;48.562;9.192;2022-08-03T01:43:15;23.20;50.00
10300;DHT22;5195;48.562;9.192;2022-08-03T01:45:41;23.20;49.90
10300;DHT22;5195;48.562;9.192;2022-08-03T01:48:07;23.20;49.90
10300;DHT22;5195;48.562;9.192;2022-08-03T01:50:35;23.40;49.70
10300;DHT22;5195;48.562;9.192;2022-08-03T01:53:00;23.20;49.70
10300;DHT22;5195;48.562;9.192;2022-08-03T01:55:27;23.20;49.80
10300;DHT22;5195;48.562;9.192;2022-08-03T01:57:54;23.10;50.00
10300;DHT22;5195;48.562;9.192;2022-08-03T02:00:19;23.40;50.10
10300;DHT22;5195;48.562;9.192;2022-08-03T02:02:46;23.30;50.00
10300;DHT22;5195;48.562;9.192;2022-08-03T02:05:12;23.20;50.00
10300;DHT22;5195;48.562;9.192;2022-08-03T02:07:39;23.10;50.10
10300;DHT22;5195;48.562;9.192;2022-08-03T02:10:04;23.00;50.00
10300;DHT22;5195;48.562;9.192;2022-08-03T02:12:30;22.70;50.30
10300;DHT22;5195;48.562;9.192;2022-08-03T02:14:55;22.50;50.70
10300;DHT22;5195;48.562;9.192;2022-08-03T02:17:21;22.60;50.80
10300;DHT22;5195;48.562;9.192;2022-08-03T02:19:47;23.20;50.00
10300;DHT22;5195;48.562;9.192;2022-08-03T02:22:13;23.30;50.20
10300;DHT22;5195;48.562;9.192;2022-08-03T02:24:39;23.40;49.70
10300;DHT22;5195;48.562;9.192;2022-08-03T02:27:07;22.70;50.40
10300;DHT22;5195;48.562;9.192;2022-08-03T02:29:32;22.70;50.30
10300;DHT22;5195;48.562;9.192;2022-08-03T02:31:56;22.50;50.90
10300;DHT22;5195;48.562;9.192;2022-08-03T02:34:22;22.60;51.30
10300;DHT22;5195;48.562;9.192;2022-08-03T02:36:49;22.60;51.20
10300;DHT22;5195;48.562;9.192;2022-08-03T02:39:15;22.30;51.50
10300;DHT22;5195;48.562;9.192;2022-08-03T02:41:41;22.50;51.80
10300;DHT22;5195;48.562;9.192;2022-08-03T02:44:08;22.90;51.30
10300;DHT22;5195;48.562;9.192;2022-08-03T02:46:38;22.70;51.10
10300;DHT22;5195;48.562;9.192;2022-08-03T02:49:03;22.80;51.30
10300;DHT22;5195;48.562;9.192;2022-08-03T02:51:29;22.90;51.00
10300;DHT22;5195;48.562;9.192;2022-08-03T02:53:54;23.10;50.70
10300;DHT22;5195;48.562;9.192;2022-08-03T02:56:19;22.80;50.80
10300;DHT22;5195;48.562;9.192;2022-08-03T02:58:45;22.80;51.00
10300;DHT22;5195;48.562;9.192;2022-08-03T03:01:11;22.70;51.40
10300;DHT22;5195;48.562;9.192;2022-08-03T03:03:37;22.60;51.30
10300;DHT22;5195;48.562;9.192;2022-08-03T03:06:02;22.90;51.10
10300;DHT22;5195;48.562;9.192;2022-08-03T03:08:28;23.00;50.80
10300;DHT22;5195;48.562;9.192;2022-08-03T03:10:57;23.10;50.60
10300;DHT22;5195;48.562;9.192;2022-08-03T03:13:20;22.80;50.70
10300;DHT22;5195;48.562;9.192;2022-08-03T03:15:46;22.40;51.30
10300;DHT22;5195;48.562;9.192;2022-08-03T03:18:12;22.10;52.50
10300;DHT22;5195;48.562;9.192;2022-08-03T03:20:37;22.30;51.90
10300;DHT22;5195;48.562;9.192;2022-08-03T03:23:03;22.60;51.50
10300;DHT22;5195;48.562;9.192;2022-08-03T03:25:31;22.50;51.50
10300;DHT22;5195;48.562;9.192;2022-08-03T03:28:04;22.40;51.50
10300;DHT22;5195;48.562;9.192;2022-08-03T03:30:29;22.40;51.50
10300;DHT22;5195;48.562;9.192;2022-08-03T03:32:55;22.10;51.80
10300;DHT22;5195;48.562;9.192;2022-08-03T03:35:20;21.80;52.20
10300;DHT22;5195;48.562;9.192;2022-08-03T03:37:46;21.60;52.60
10300;DHT22;5195;48.562;9.192;2022-08-03T03:40:11;21.90;52.90
10300;DHT22;5195;48.562;9.192;2022-08-03T03:42:37;22.30;52.30
10300;DHT22;5195;48.562;9.192;2022-08-03T03:45:03;22.30;52.30
10300;DHT22;5195;48.562;9.192;2022-08-03T03:47:28;22.40;52.50
10300;DHT22;5195;48.562;9.192;2022-08-03T03:49:54;22.30;52.50
10300;DHT22;5195;48.562;9.192;2022-08-03T03:52:20;22.00;52.70
10300;DHT22;5195;48.562;9.192;2022-08-03T03:54:46;21.80;53.10
10300;DHT22;5195;48.562;9.192;2022-08-03T03:57:11;21.90;53.20
10300;DHT22;5195;48.562;9.192;2022-08-03T03:59:37;22.30;52.30
10300;DHT22;5195;48.562;9.192;2022-08-03T04:02:02;22.50;51.70
10300;DHT22;5195;48.562;9.192;2022-08-03T04:04:28;22.30;51.70
10300;DHT22;5195;48.562;9.192;2022-08-03T04:07:13;22.00;52.20
10300;DHT22;5195;48.562;9.192;2022-08-03T04:09:59;22.10;52.80
10300;DHT22;5195;48.562;9.192;2022-08-03T04:12:44;22.30;52.40
10300;DHT22;5195;48.562;9.192;2022-08-03T04:15:11;21.80;53.60
10300;DHT22;5195;48.562;9.192;2022-08-03T04:17:37;21.80;52.90
10300;DHT22;5195;48.562;9.192;2022-08-03T04:20:05;22.20;52.40
10300;DHT22;5195;48.562;9.192;2022-08-03T04:22:31;22.10;52.30
10300;DHT22;5195;48.562;9.192;2022-08-03T04:25:00;22.40;51.70
10300;DHT22;5195;48.562;9.192;2022-08-03T04:27:26;22.20;51.80
10300;DHT22;5195;48.562;9.192;2022-08-03T04:29:52;21.90;52.40
10300;DHT22;5195;48.562;9.192;2022-08-03T04:32:17;21.90;52.70
10300;DHT22;5195;48.562;9.192;2022-08-03T04:34:44;21.90;52.60
10300;DHT22;5195;48.562;9.192;2022-08-03T04:37:11;21.70;52.90
10300;DHT22;5195;48.562;9.192;2022-08-03T04:39:36;21.90;53.30
10300;DHT22;5195;48.562;9.192;2022-08-03T04:42:03;21.80;53.10
10300;DHT22;5195;48.562;9.192;2022-08-03T04:44:27;22.00;53.20
10300;DHT22;5195;48.562;9.192;2022-08-03T04:46:53;22.30;52.50
10300;DHT22;5195;48.562;9.192;2022-08-03T04:49:19;22.50;52.10
10300;DHT22;5195;48.562;9.192;2022-08-03T04:51:44;22.40;52.20
10300;DHT22;5195;48.562;9.192;2022-08-03T04:54:12;22.40;52.10
10300;DHT22;5195;48.562;9.192;2022-08-03T04:56:39;22.30;52.30
10300;DHT22;5195;48.562;9.192;2022-08-03T04:59:03;22.10;52.70
10300;DHT22;5195;48.562;9.192;2022-08-03T05:01:29;21.90;52.90
10300;DHT22;5195;48.562;9.192;2022-08-03T05:03:55;22.10;53.20
10300;DHT22;5195;48.562;9.192;2022-08-03T05:06:20;22.10;53.00
10300;DHT22;5195;48.562;9.192;2022-08-03T05:08:46;22.30;52.80
10300;DHT22;5195;48.562;9.192;2022-08-03T05:11:13;22.00;52.90
10300;DHT22;5195;48.562;9.192;2022-08-03T05:13:38;22.00;52.90
10300;DHT22;5195;48.562;9.192;2022-08-03T05:16:03;22.20;53.10
10300;DHT22;5195;48.562;9.192;2022-08-03T05:18:29;22.50;52.60
10300;DHT22;5195;48.562;9.192;2022-08-03T05:20:55;22.90;52.40
10300;DHT22;5195;48.562;9.192;2022-08-03T05:23:21;22.80;51.70
10300;DHT22;5195;48.562;9.192;2022-08-03T05:25:46;23.00;51.30
10300;DHT22;5195;48.562;9.192;2022-08-03T05:28:12;23.10;51.20
10300;DHT22;5195;48.562;9.192;2022-08-03T05:30:37;22.80;51.40
10300;DHT22;5195;48.562;9.192;2022-08-03T05:33:03;22.50;52.00
10300;DHT22;5195;48.562;9.192;2022-08-03T05:35:29;22.20;52.60
10300;DHT22;5195;48.562;9.192;2022-08-03T05:37:54;22.00;53.00
10300;DHT22;5195;48.562;9.192;2022-08-03T05:40:20;21.90;53.40
10300;DHT22;5195;48.562;9.192;2022-08-03T05:42:45;21.90;53.60
10300;DHT22;5195;48.562;9.192;2022-08-03T05:45:12;21.80;54.00
10300;DHT22;5195;48.562;9.192;2022-08-03T05:47:42;21.70;53.90
10300;DHT22;5195;48.562;9.192;2022-08-03T05:50:07;21.70;54.10
10300;DHT22;5195;48.562;9.192;2022-08-03T05:52:33;21.70;54.30
10300;DHT22;5195;48.562;9.192;2022-08-03T05:54:59;22.00;54.40
10300;DHT22;5195;48.562;9.192;2022-08-03T05:57:24;22.50;53.90
10300;DHT22;5195;48.562;9.192;2022-08-03T05:59:50;22.50;53.50
10300;DHT22;5195;48.562;9.192;2022-08-03T06:02:16;22.80;53.50
10300;DHT22;5195;48.562;9.192;2022-08-03T06:04:42;22.70;54.00
10300;DHT22;5195;48.562;9.192;2022-08-03T06:07:07;22.90;53.00
10300;DHT22;5195;48.562;9.192;2022-08-03T06:09:33;22.90;52.90
10300;DHT22;5195;48.562;9.192;2022-08-03T06:12:01;22.80;53.10
10300;DHT22;5195;48.562;9.192;2022-08-03T06:14:27;23.00;52.70
10300;DHT22;5195;48.562;9.192;2022-08-03T06:16:52;23.10;52.50
10300;DHT22;5195;48.562;9.192;2022-08-03T06:19:18;23.30;52.30
10300;DHT22;5195;48.562;9.192;2022-08-03T06:21:44;23.70;51.80
10300;DHT22;5195;48.562;9.192;2022-08-03T06:24:10;23.60;51.70
10300;DHT22;5195;48.562;9.192;2022-08-03T06:26:35;23.80;51.10
10300;DHT22;5195;48.562;9.192;2022-08-03T06:29:01;23.80;51.20
10300;DHT22;5195;48.562;9.192;2022-08-03T06:31:27;24.00;50.70
10300;DHT22;5195;48.562;9.192;2022-08-03T06:33:54;24.30;50.20
10300;DHT22;5195;48.562;9.192;2022-08-03T06:36:19;24.60;49.40
10300;DHT22;5195;48.562;9.192;2022-08-03T06:38:46;25.00;49.80
10300;DHT22;5195;48.562;9.192;2022-08-03T06:41:11;24.90;49.60
10300;DHT22;5195;48.562;9.192;2022-08-03T06:43:37;25.30;48.50
10300;DHT22;5195;48.562;9.192;2022-08-03T06:46:03;26.00;47.40
10300;DHT22;5195;48.562;9.192;2022-08-03T06:48:29;26.50;47.90
10300;DHT22;5195;48.562;9.192;2022-08-03T06:50:55;27.10;45.30
10300;DHT22;5195;48.562;9.192;2022-08-03T06:53:20;27.60;45.90
10300;DHT22;5195;48.562;9.192;2022-08-03T06:55:46;28.10;44.10
10300;DHT22;5195;48.562;9.192;2022-08-03T06:58:12;28.80;42.30
10300;DHT22;5195;48.562;9.192;2022-08-03T07:00:37;29.00;42.50
10300;DHT22;5195;48.562;9.192;2022-08-03T07:03:03;29.20;41.00
10300;DHT22;5195;48.562;9.192;2022-08-03T07:05:29;29.90;39.90
10300;DHT22;5195;48.562;9.192;2022-08-03T07:07:55;29.90;40.40
10300;DHT22;5195;48.562;9.192;2022-08-03T07:10:20;29.80;40.20
10300;DHT22;5195;48.562;9.192;2022-08-03T07:12:46;29.60;40.80
10300;DHT22;5195;48.562;9.192;2022-08-03T07:15:13;29.70;39.90
10300;DHT22;5195;48.562;9.192;2022-08-03T07:17:38;30.00;39.70
10300;DHT22;5195;48.562;9.192;2022-08-03T07:20:05;30.20;39.50
10300;DHT22;5195;48.562;9.192;2022-08-03T07:22:30;30.10;39.40
10300;DHT22;5195;48.562;9.192;2022-08-03T07:24:56;30.10;39.90
10300;DHT22;5195;48.562;9.192;2022-08-03T07:27:22;30.00;39.80
10300;DHT22;5195;48.562;9.192;2022-08-03T07:29:48;29.90;40.10
10300;DHT22;5195;48.562;9.192;2022-08-03T07:32:14;29.90;40.10
10300;DHT22;5195;48.562;9.192;2022-08-03T07:34:42;30.10;39.80
10300;DHT22;5195;48.562;9.192;2022-08-03T07:37:09;30.10;39.80
10300;DHT22;5195;48.562;9.192;2022-08-03T07:39:34;30.30;40.00
10300;DHT22;5195;48.562;9.192;2022-08-03T07:42:00;30.70;39.60
10300;DHT22;5195;48.562;9.192;2022-08-03T07:44:26;30.70;39.10
10300;DHT22;5195;48.562;9.192;2022-08-03T07:46:52;30.80;39.10
10300;DHT22;5195;48.562;9.192;2022-08-03T07:49:18;31.00;38.10
10300;DHT22;5195;48.562;9.192;2022-08-03T07:51:44;31.30;37.10
10300;DHT22;5195;48.562;9.192;2022-08-03T07:54:09;31.50;37.40
10300;DHT22;5195;48.562;9.192;2022-08-03T07:56:36;31.50;38.50
10300;DHT22;5195;48.562;9.192;2022-08-03T07:59:02;31.30;39.50
10300;DHT22;5195;48.562;9.192;2022-08-03T08:01:30;31.10;40.60
10300;DHT22;5195;48.562;9.192;2022-08-03T08:03:56;31.80;39.20
10300;DHT22;5195;48.562;9.192;2022-08-03T08:06:22;31.70;39.10
10300;DHT22;5195;48.562;9.192;2022-08-03T08:08:51;31.70;38.90
10300;DHT22;5195;48.562;9.192;2022-08-03T08:11:17;31.70;38.90
10300;DHT22;5195;48.562;9.192;2022-08-03T08:13:42;31.90;38.20
10300;DHT22;5195;48.562;9.192;2022-08-03T08:16:08;32.40;37.90
10300;DHT22;5195;48.562;9.192;2022-08-03T08:18:33;32.50;38.00
10300;DHT22;5195;48.562;9.192;2022-08-03T08:20:59;32.70;37.50
10300;DHT22;5195;48.562;9.192;2022-08-03T08:23:24;33.00;36.90
10300;DHT22;5195;48.562;9.192;2022-08-03T08:25:50;33.00;37.20
10300;DHT22;5195;48.562;9.192;2022-08-03T08:28:16;32.90;36.80
10300;DHT22;5195;48.562;9.192;2022-08-03T08:30:41;33.00;35.60
10300;DHT22;5195;48.562;9.192;2022-08-03T08:33:07;33.60;34.70
10300;DHT22;5195;48.562;9.192;2022-08-03T08:35:33;33.60;34.70
10300;DHT22;5195;48.562;9.192;2022-08-03T08:37:59;33.50;36.80
10300;DHT22;5195;48.562;9.192;2022-08-03T08:40:26;33.70;34.70
10300;DHT22;5195;48.562;9.192;2022-08-03T08:42:51;33.70;34.70
10300;DHT22;5195;48.562;9.192;2022-08-03T08:45:17;34.10;34.60
10300;DHT22;5195;48.562;9.192;2022-08-03T08:47:43;34.40;34.10
10300;DHT22;5195;48.562;9.192;2022-08-03T08:50:08;34.70;34.40
10300;DHT22;5195;48.562;9.192;2022-08-03T08:52:34;34.40;34.90
10300;DHT22;5195;48.562;9.192;2022-08-03T08:55:04;34.40;34.90
10300;DHT22;5195;48.562;9.192;2022-08-03T08:57:31;34.30;34.60
10300;DHT22;5195;48.562;9.192;2022-08-03T08:59:58;34.20;34.40
10300;DHT22;5195;48.562;9.192;2022-08-03T09:02:24;34.10;34.90
10300;DHT22;5195;48.562;9.192;2022-08-03T09:04:50;34.40;34.30
10300;DHT22;5195;48.562;9.192;2022-08-03T09:07:15;34.40;34.30
10300;DHT22;5195;48.562;9.192;2022-08-03T09:09:41;34.70;33.60
10300;DHT22;5195;48.562;9.192;2022-08-03T09:12:07;34.70;34.20
10300;DHT22;5195;48.562;9.192;2022-08-03T09:14:33;34.60;34.30
10300;DHT22;5195;48.562;9.192;2022-08-03T09:17:03;34.90;32.90
10300;DHT22;5195;48.562;9.192;2022-08-03T09:19:28;35.00;33.20
10300;DHT22;5195;48.562;9.192;2022-08-03T09:22:11;35.20;33.00
10300;DHT22;5195;48.562;9.192;2022-08-03T09:24:36;35.30;33.00
10300;DHT22;5195;48.562;9.192;2022-08-03T09:27:04;35.20;33.10
10300;DHT22;5195;48.562;9.192;2022-08-03T09:29:30;35.10;33.00
10300;DHT22;5195;48.562;9.192;2022-08-03T09:31:59;35.40;30.90
10300;DHT22;5195;48.562;9.192;2022-08-03T09:34:18;35.70;30.90
10300;DHT22;5195;48.562;9.192;2022-08-03T09:36:45;36.00;30.80
10300;DHT22;5195;48.562;9.192;2022-08-03T09:39:14;35.90;31.10
10300;DHT22;5195;48.562;9.192;2022-08-03T09:41:39;35.90;30.40
10300;DHT22;5195;48.562;9.192;2022-08-03T09:44:05;36.20;29.90
10300;DHT22;5195;48.562;9.192;2022-08-03T09:46:31;36.50;29.30
10300;DHT22;5195;48.562;9.192;2022-08-03T09:49:10;36.50;29.30
10300;DHT22;5195;48.562;9.192;2022-08-03T09:51:36;36.60;29.30
10300;DHT22;5195;48.562;9.192;2022-08-03T09:54:02;36.60;29.30
10300;DHT22;5195;48.562;9.192;2022-08-03T09:56:38;36.50;29.40
10300;DHT22;5195;48.562;9.192;2022-08-03T09:59:03;36.20;29.80
10300;DHT22;5195;48.562;9.192;2022-08-03T10:01:32;35.90;30.00
10300;DHT22;5195;48.562;9.192;2022-08-03T10:03:58;35.80;30.10
10300;DHT22;5195;48.562;9.192;2022-08-03T10:06:23;35.80;30.20
10300;DHT22;5195;48.562;9.192;2022-08-03T10:09:11;36.10;29.60
10300;DHT22;5195;48.562;9.192;2022-08-03T10:11:36;36.20;29.60
10300;DHT22;5195;48.562;9.192;2022-08-03T10:14:05;35.90;29.20
10300;DHT22;5195;48.562;9.192;2022-08-03T10:16:35;35.70;29.40
10300;DHT22;5195;48.562;9.192;2022-08-03T10:19:11;35.60;30.00
10300;DHT22;5195;48.562;9.192;2022-08-03T10:21:54;35.50;29.90
10300;DHT22;5195;48.562;9.192;2022-08-03T10:24:27;35.60;30.30
10300;DHT22;5195;48.562;9.192;2022-08-03T10:27:07;35.60;29.80
10300;DHT22;5195;48.562;9.192;2022-08-03T10:29:44;35.60;29.50
10300;DHT22;5195;48.562;9.192;2022-08-03T10:32:26;35.80;28.60
10300;DHT22;5195;48.562;9.192;2022-08-03T10:35:09;36.10;28.40
10300;DHT22;5195;48.562;9.192;2022-08-03T10:40:31;36.50;27.60
10300;DHT22;5195;48.562;9.192;2022-08-03T10:43:08;36.30;27.60
10300;DHT22;5195;48.562;9.192;2022-08-03T10:45:42;36.20;27.20
10300;DHT22;5195;48.562;9.192;2022-08-03T10:48:17;36.50;27.60
10300;DHT22;5195;48.562;9.192;2022-08-03T10:50:54;36.50;26.90
10300;DHT22;5195;48.562;9.192;2022-08-03T10:53:37;36.40;26.80
10300;DHT22;5195;48.562;9.192;2022-08-03T11:02:20;36.70;26.90
10300;DHT22;5195;48.562;9.192;2022-08-03T11:05:23;36.80;27.50
10300;DHT22;5195;48.562;9.192;2022-08-03T11:07:57;36.60;27.50
10300;DHT22;5195;48.562;9.192;2022-08-03T11:10:30;36.30;27.70
10300;DHT22;5195;48.562;9.192;2022-08-03T11:13:06;36.50;27.90
10300;DHT22;5195;48.562;9.192;2022-08-03T11:15:44;36.40;27.80
10300;DHT22;5195;48.562;9.192;2022-08-03T11:18:19;36.60;27.70
10300;DHT22;5195;48.562;9.192;2022-08-03T11:20:55;36.70;27.50
10300;DHT22;5195;48.562;9.192;2022-08-03T11:23:47;36.60;27.40
10300;DHT22;5195;48.562;9.192;2022-08-03T11:26:22;36.50;27.50
10300;DHT22;5195;48.562;9.192;2022-08-03T11:29:25;36.40;27.90
10300;DHT22;5195;48.562;9.192;2022-08-03T11:34:12;35.90;28.20
10300;DHT22;5195;48.562;9.192;2022-08-03T11:37:18;35.70;28.70
10300;DHT22;5195;48.562;9.192;2022-08-03T11:39:53;35.60;28.50
10300;DHT22;5195;48.562;9.192;2022-08-03T11:45:03;35.60;28.90
10300;DHT22;5195;48.562;9.192;2022-08-03T11:47:39;35.80;27.90
10300;DHT22;5195;48.562;9.192;2022-08-03T11:50:15;36.30;29.10
10300;DHT22;5195;48.562;9.192;2022-08-03T11:52:50;36.40;28.50
10300;DHT22;5195;48.562;9.192;2022-08-03T11:55:26;36.20;27.90
10300;DHT22;5195;48.562;9.192;2022-08-03T11:58:03;36.00;28.40
10300;DHT22;5195;48.562;9.192;2022-08-03T12:00:38;35.90;28.40
10300;DHT22;5195;48.562;9.192;2022-08-03T12:03:15;36.00;28.30
10300;DHT22;5195;48.562;9.192;2022-08-03T12:05:51;36.10;27.80
10300;DHT22;5195;48.562;9.192;2022-08-03T12:11:03;36.20;28.30
10300;DHT22;5195;48.562;9.192;2022-08-03T12:13:50;36.20;28.20
10300;DHT22;5195;48.562;9.192;2022-08-03T12:16:17;36.20;27.90
10300;DHT22;5195;48.562;9.192;2022-08-03T12:18:57;35.90;28.40
10300;DHT22;5195;48.562;9.192;2022-08-03T12:21:28;35.90;28.40
10300;DHT22;5195;48.562;9.192;2022-08-03T12:24:05;36.30;27.70
10300;DHT22;5195;48.562;9.192;2022-08-03T12:26:48;36.30;27.70
10300;DHT22;5195;48.562;9.192;2022-08-03T12:29:22;36.30;28.10
10300;DHT22;5195;48.562;9.192;2022-08-03T12:31:58;36.10;28.40
10300;DHT22;5195;48.562;9.192;2022-08-03T12:34:43;36.20;27.60
10300;DHT22;5195;48.562;9.192;2022-08-03T12:37:19;36.20;27.80
10300;DHT22;5195;48.562;9.192;2022-08-03T12:39:55;35.80;28.20
10300;DHT22;5195;48.562;9.192;2022-08-03T12:45:24;35.70;29.40
10300;DHT22;5195;48.562;9.192;2022-08-03T12:48:00;35.80;28.30
10300;DHT22;5195;48.562;9.192;2022-08-03T12:50:36;35.70;28.30
10300;DHT22;5195;48.562;9.192;2022-08-03T12:53:11;35.70;28.30
10300;DHT22;5195;48.562;9.192;2022-08-03T12:55:47;35.70;28.30
10300;DHT22;5195;48.562;9.192;2022-08-03T12:58:32;35.90;28.10
10300;DHT22;5195;48.562;9.192;2022-08-03T13:01:04;35.80;27.80
10300;DHT22;5195;48.562;9.192;2022-08-03T13:03:41;35.60;28.00
10300;DHT22;5195;48.562;9.192;2022-08-03T13:06:16;35.40;28.40
10300;DHT22;5195;48.562;9.192;2022-08-03T13:09:03;35.30;28.40
10300;DHT22;5195;48.562;9.192;2022-08-03T13:11:36;35.50;28.20
10300;DHT22;5195;48.562;9.192;2022-08-03T13:35:51;36.50;28.00
10300;DHT22;5195;48.562;9.192;2022-08-03T13:38:17;36.60;26.80
10300;DHT22;5195;48.562;9.192;2022-08-03T13:40:43;36.00;28.20
10300;DHT22;5195;48.562;9.192;2022-08-03T13:43:09;36.00;27.60
10300;DHT22;5195;48.562;9.192;2022-08-03T13:45:34;36.00;28.40
10300;DHT22;5195;48.562;9.192;2022-08-03T13:48:00;35.90;28.30
10300;DHT22;5195;48.562;9.192;2022-08-03T13:50:27;35.60;27.70
10300;DHT22;5195;48.562;9.192;2022-08-03T13:52:52;35.70;28.00
10300;DHT22;5195;48.562;9.192;2022-08-03T13:55:18;35.70;28.70
10300;DHT22;5195;48.562;9.192;2022-08-03T13:57:43;35.70;28.40
10300;DHT22;5195;48.562;9.192;2022-08-03T14:00:10;35.60;28.20
10300;DHT22;5195;48.562;9.192;2022-08-03T14:02:36;35.60;28.10
10300;DHT22;5195;48.562;9.192;2022-08-03T14:05:03;35.40;28.30
10300;DHT22;5195;48.562;9.192;2022-08-03T14:07:28;35.20;28.70
10300;DHT22;5195;48.562;9.192;2022-08-03T14:09:54;35.10;28.90
10300;DHT22;5195;48.562;9.192;2022-08-03T14:12:19;34.90;28.80
10300;DHT22;5195;48.562;9.192;2022-08-03T14:14:45;35.10;29.10
10300;DHT22;5195;48.562;9.192;2022-08-03T14:17:11;34.90;28.30
10300;DHT22;5195;48.562;9.192;2022-08-03T14:19:37;34.90;28.20
10300;DHT22;5195;48.562;9.192;2022-08-03T14:22:04;34.80;28.30
10300;DHT22;5195;48.562;9.192;2022-08-03T14:24:29;34.70;28.40
10300;DHT22;5195;48.562;9.192;2022-08-03T14:26:55;35.00;28.00
10300;DHT22;5195;48.562;9.192;2022-08-03T14:29:22;35.00;28.00
10300;DHT22;5195;48.562;9.192;2022-08-03T14:31:48;35.10;27.70
10300;DHT22;5195;48.562;9.192;2022-08-03T14:34:15;35.10;27.40
10300;DHT22;5195;48.562;9.192;2022-08-03T14:36:40;34.90;28.00
10300;DHT22;5195;48.562;9.192;2022-08-03T14:39:06;34.80;28.10
10300;DHT22;5195;48.562;9.192;2022-08-03T14:41:31;35.00;27.70
10300;DHT22;5195;48.562;9.192;2022-08-03T14:43:57;35.00;27.90
10300;DHT22;5195;48.562;9.192;2022-08-03T14:46:22;35.20;27.40
10300;DHT22;5195;48.562;9.192;2022-08-03T14:48:49;35.40;28.00
10300;DHT22;5195;48.562;9.192;2022-08-03T14:51:15;35.40;28.10
10300;DHT22;5195;48.562;9.192;2022-08-03T14:53:43;35.50;28.40
10300;DHT22;5195;48.562;9.192;2022-08-03T14:56:09;35.70;28.80
10300;DHT22;5195;48.562;9.192;2022-08-03T14:58:35;35.60;28.30
10300;DHT22;5195;48.562;9.192;2022-08-03T15:01:00;35.60;27.90
10300;DHT22;5195;48.562;9.192;2022-08-03T15:03:26;35.40;28.00
10300;DHT22;5195;48.562;9.192;2022-08-03T15:05:52;35.20;28.10
10300;DHT22;5195;48.562;9.192;2022-08-03T15:08:17;35.00;28.80
10300;DHT22;5195;48.562;9.192;2022-08-03T15:10:43;35.00;28.20
10300;DHT22;5195;48.562;9.192;2022-08-03T15:13:09;35.30;28.20
10300;DHT22;5195;48.562;9.192;2022-08-03T15:15:34;35.20;28.30
10300;DHT22;5195;48.562;9.192;2022-08-03T15:18:00;35.30;27.90
10300;DHT22;5195;48.562;9.192;2022-08-03T15:20:25;35.20;27.90
10300;DHT22;5195;48.562;9.192;2022-08-03T15:26:03;35.10;27.80
10300;DHT22;5195;48.562;9.192;2022-08-03T15:28:29;34.80;28.10
10300;DHT22;5195;48.562;9.192;2022-08-03T15:30:54;34.90;29.00
10300;DHT22;5195;48.562;9.192;2022-08-03T15:33:19;35.10;28.30
10300;DHT22;5195;48.562;9.192;2022-08-03T15:35:45;35.10;28.20
10300;DHT22;5195;48.562;9.192;2022-08-03T15:38:10;34.80;28.20
10300;DHT22;5195;48.562;9.192;2022-08-03T15:40:36;34.90;28.20
10300;DHT22;5195;48.562;9.192;2022-08-03T15:43:02;35.10;28.30
10300;DHT22;5195;48.562;9.192;2022-08-03T15:45:27;34.90;28.30
10300;DHT22;5195;48.562;9.192;2022-08-03T15:47:53;34.70;28.40
10300;DHT22;5195;48.562;9.192;2022-08-03T15:50:18;34.80;28.40
10300;DHT22;5195;48.562;9.192;2022-08-03T15:52:44;35.10;27.90
10300;DHT22;5195;48.562;9.192;2022-08-03T15:55:11;35.30;27.40
10300;DHT22;5195;48.562;9.192;2022-08-03T15:57:36;35.50;27.20
10300;DHT22;5195;48.562;9.192;2022-08-03T16:00:06;35.30;27.20
10300;DHT22;5195;48.562;9.192;2022-08-03T16:02:31;35.20;27.40
10300;DHT22;5195;48.562;9.192;2022-08-03T16:04:57;35.00;27.70
10300;DHT22;5195;48.562;9.192;2022-08-03T16:07:22;35.10;27.50
10300;DHT22;5195;48.562;9.192;2022-08-03T16:10:08;35.20;27.50
10300;DHT22;5195;48.562;9.192;2022-08-03T16:12:35;35.30;27.40
10300;DHT22;5195;48.562;9.192;2022-08-03T16:15:01;35.20;27.60
10300;DHT22;5195;48.562;9.192;2022-08-03T16:17:26;35.10;27.60
10300;DHT22;5195;48.562;9.192;2022-08-03T16:19:51;35.20;27.70
10300;DHT22;5195;48.562;9.192;2022-08-03T16:22:17;35.00;28.00
10300;DHT22;5195;48.562;9.192;2022-08-03T16:24:43;34.70;28.10
10300;DHT22;5195;48.562;9.192;2022-08-03T16:27:08;34.80;27.90
10300;DHT22;5195;48.562;9.192;2022-08-03T16:29:34;34.70;28.00
10300;DHT22;5195;48.562;9.192;2022-08-03T16:31:59;34.70;27.90
10300;DHT22;5195;48.562;9.192;2022-08-03T16:34:25;34.60;27.90
10300;DHT22;5195;48.562;9.192;2022-08-03T16:36:50;34.40;28.10
10300;DHT22;5195;48.562;9.192;2022-08-03T16:39:17;34.50;28.40
10300;DHT22;5195;48.562;9.192;2022-08-03T16:41:43;34.40;28.30
10300;DHT22;5195;48.562;9.192;2022-08-03T16:44:09;34.30;28.60
10300;DHT22;5195;48.562;9.192;2022-08-03T16:46:35;34.30;28.60